createdAt,value
2023-05-14T00:00:21.917Z,102216.44
2023-05-14T00:02:48.548Z,102215.41
2023-05-14T00:05:15.421Z,102215.91
2023-05-14T00:07:41.769Z,102214.31
2023-05-14T00:10:08.437Z,102213.47
2023-05-14T00:12:34.827Z,102212.69
2023-05-14T00:15:01.201Z,102200.22
2023-05-14T00:17:27.700Z,102196.63
2023-05-14T00:19:54.101Z,102195.00
2023-05-14T00:22:20.520Z,102199.78
2023-05-14T00:24:46.916Z,102200.81
2023-05-14T00:27:13.378Z,102196.56
2023-05-14T00:29:39.992Z,102194.09
2023-05-14T00:32:06.788Z,102195.47
2023-05-14T00:34:33.237Z,102193.91
2023-05-14T00:36:59.623Z,102189.00
2023-05-14T00:39:26.005Z,102185.91
2023-05-14T00:41:52.385Z,102184.06
2023-05-14T00:44:18.729Z,102188.66
2023-05-14T00:46:45.529Z,102182.00
2023-05-14T00:49:12.077Z,102174.00
2023-05-14T00:51:39.679Z,102172.69
2023-05-14T00:54:06.427Z,102167.28
2023-05-14T00:56:34.108Z,102167.00
2023-05-14T00:59:00.602Z,102157.44
2023-05-14T01:01:28.541Z,102159.06
2023-05-14T01:03:57.782Z,102161.00
2023-05-14T01:06:58.539Z,102171.75
2023-05-14T01:09:59.698Z,102175.03
2023-05-14T01:12:54.698Z,102172.97
2023-05-14T01:15:25.718Z,102164.34
2023-05-14T01:17:59.063Z,102164.94
2023-05-14T01:20:26.712Z,102158.22
2023-05-14T01:22:53.079Z,102159.75
2023-05-14T01:25:19.531Z,102156.59
2023-05-14T01:28:03.835Z,102152.94
2023-05-14T01:30:48.962Z,102162.81
2023-05-14T01:33:18.300Z,102162.91
2023-05-14T01:35:45.440Z,102171.97
2023-05-14T01:38:14.884Z,102171.19
2023-05-14T01:40:41.802Z,102165.28
2023-05-14T01:43:08.719Z,102163.34
2023-05-14T01:45:36.606Z,102159.59
2023-05-14T01:48:04.427Z,102159.41
2023-05-14T01:50:30.813Z,102151.06
2023-05-14T01:52:57.257Z,102151.38
2023-05-14T01:55:24.646Z,102151.63
2023-05-14T01:57:51.690Z,102156.41
2023-05-14T02:00:19.087Z,102148.16
2023-05-14T02:02:45.466Z,102150.59
2023-05-14T02:05:12.779Z,102140.38
2023-05-14T02:07:39.409Z,102140.97
2023-05-14T02:10:06.581Z,102123.13
2023-05-14T02:12:33.148Z,102132.78
2023-05-14T02:14:59.561Z,102125.53
2023-05-14T02:17:26.605Z,102129.44
2023-05-14T02:19:52.989Z,102122.63
2023-05-14T02:22:19.368Z,102131.50
2023-05-14T02:24:45.686Z,102139.00
2023-05-14T02:27:13.165Z,102133.97
2023-05-14T02:29:39.506Z,102135.56
2023-05-14T02:32:06.240Z,102126.72
2023-05-14T02:34:34.340Z,102126.81
2023-05-14T02:37:01.013Z,102126.03
2023-05-14T02:39:27.392Z,102123.47
2023-05-14T02:41:53.708Z,102117.84
2023-05-14T02:44:20.089Z,102114.03
2023-05-14T02:46:48.219Z,102119.97
2023-05-14T02:49:14.697Z,102115.53
2023-05-14T02:51:41.129Z,102111.19
2023-05-14T02:54:07.638Z,102111.00
2023-05-14T02:56:34.020Z,102109.47
2023-05-14T02:59:00.613Z,102117.16
2023-05-14T03:01:27.538Z,102114.69
2023-05-14T03:03:54.323Z,102117.00
2023-05-14T03:06:20.713Z,102118.72
2023-05-14T03:08:47.095Z,102115.94
2023-05-14T03:11:13.489Z,102113.19
2023-05-14T03:13:39.898Z,102115.00
2023-05-14T03:16:06.521Z,102110.97
2023-05-14T03:18:34.731Z,102108.59
2023-05-14T03:21:01.192Z,102118.16
2023-05-14T03:23:27.873Z,102114.91
2023-05-14T03:25:54.231Z,102117.03
2023-05-14T03:28:20.569Z,102109.63
2023-05-14T03:30:47.044Z,102109.63
2023-05-14T03:33:13.406Z,102118.56
2023-05-14T03:35:39.774Z,102120.69
2023-05-14T03:38:06.323Z,102115.72
2023-05-14T03:40:32.689Z,102099.69
2023-05-14T03:42:59.104Z,102103.44
2023-05-14T03:45:26.826Z,102112.53
2023-05-14T03:47:53.378Z,102116.88
2023-05-14T03:50:19.848Z,102113.41
2023-05-14T03:52:46.230Z,102112.31
2023-05-14T03:55:12.666Z,102110.03
2023-05-14T03:57:39.074Z,102102.72
2023-05-14T04:00:06.324Z,102109.38
2023-05-14T04:02:32.891Z,102102.53
2023-05-14T04:04:59.354Z,102097.34
2023-05-14T04:07:25.741Z,102096.66
2023-05-14T04:09:52.144Z,102092.28
2023-05-14T04:12:18.590Z,102093.09
2023-05-14T04:14:45.016Z,102095.72
2023-05-14T04:17:11.317Z,102101.00
2023-05-14T04:19:37.976Z,102089.50
2023-05-14T04:22:04.843Z,102092.75
2023-05-14T04:24:31.256Z,102088.41
2023-05-14T04:26:57.629Z,102096.22
2023-05-14T04:29:24.014Z,102091.84
2023-05-14T04:31:50.583Z,102092.47
2023-05-14T04:34:17.064Z,102085.47
2023-05-14T04:36:43.459Z,102089.91
2023-05-14T04:39:09.912Z,102096.22
2023-05-14T04:41:36.732Z,102094.59
2023-05-14T04:44:03.586Z,102093.06
2023-05-14T04:46:30.359Z,102097.66
2023-05-14T04:48:56.881Z,102086.31
2023-05-14T04:51:23.784Z,102098.59
2023-05-14T04:53:50.231Z,102099.44
2023-05-14T04:56:16.571Z,102096.09
2023-05-14T04:58:42.948Z,102097.91
2023-05-14T05:01:10.029Z,102102.38
2023-05-14T05:03:36.460Z,102104.25
2023-05-14T05:06:02.864Z,102096.41
2023-05-14T05:08:29.263Z,102097.59
2023-05-14T05:10:55.652Z,102099.84
2023-05-14T05:13:21.988Z,102102.09
2023-05-14T05:15:48.543Z,102103.31
2023-05-14T05:18:14.948Z,102108.38
2023-05-14T05:20:41.385Z,102100.44
2023-05-14T05:23:07.756Z,102103.00
2023-05-14T05:25:34.104Z,102102.09
2023-05-14T05:28:00.696Z,102111.72
2023-05-14T05:30:27.124Z,102121.28
2023-05-14T05:32:53.580Z,102113.47
2023-05-14T05:35:20.136Z,102114.19
2023-05-14T05:37:46.575Z,102115.44
2023-05-14T05:40:14.370Z,102110.22
2023-05-14T05:42:41.349Z,102110.47
2023-05-14T05:45:08.436Z,102105.81
2023-05-14T05:47:34.882Z,102110.00
2023-05-14T05:50:01.286Z,102113.34
2023-05-14T05:52:27.641Z,102116.13
2023-05-14T05:54:54.541Z,102117.53
2023-05-14T05:57:25.666Z,102117.34
2023-05-14T05:59:53.082Z,102119.38
2023-05-14T06:02:20.313Z,102114.03
2023-05-14T06:04:46.834Z,102112.91
2023-05-14T06:07:13.217Z,102122.53
2023-05-14T06:09:39.616Z,102116.31
2023-05-14T06:12:06.390Z,102118.88
2023-05-14T06:14:32.785Z,102115.97
2023-05-14T06:16:59.170Z,102128.44
2023-05-14T06:19:25.553Z,102123.28
2023-05-14T06:21:51.950Z,102114.97
2023-05-14T06:24:19.932Z,102117.91
2023-05-14T06:26:46.318Z,102125.59
2023-05-14T06:29:12.649Z,102128.38
2023-05-14T06:31:39.081Z,102137.19
2023-05-14T06:34:05.542Z,102124.19
2023-05-14T06:36:32.004Z,102128.25
2023-05-14T06:38:58.444Z,102126.44
2023-05-14T06:41:24.840Z,102129.47
2023-05-14T06:43:51.229Z,102122.75
2023-05-14T06:46:17.616Z,102121.91
2023-05-14T06:48:44.051Z,102132.47
2023-05-14T06:51:11.055Z,102118.06
2023-05-14T06:53:37.442Z,102118.75
2023-05-14T06:56:03.943Z,102114.22
2023-05-14T06:58:30.348Z,102107.16
2023-05-14T07:00:56.784Z,102110.50
2023-05-14T07:03:23.092Z,102110.66
2023-05-14T07:05:49.720Z,102105.81
2023-05-14T07:08:16.077Z,102113.25
2023-05-14T07:10:42.454Z,102110.16
2023-05-14T07:13:08.787Z,102110.41
2023-05-14T07:15:35.098Z,102121.06
2023-05-14T07:18:01.507Z,102122.78
2023-05-14T07:20:28.087Z,102114.94
2023-05-14T07:22:54.616Z,102115.78
2023-05-14T07:25:21.012Z,102109.31
2023-05-14T07:27:47.490Z,102114.19
2023-05-14T07:30:14.002Z,102107.50
2023-05-14T07:32:40.764Z,102108.97
2023-05-14T07:35:07.924Z,102102.66
2023-05-14T07:37:34.518Z,102121.66
2023-05-14T07:40:00.928Z,102104.03
2023-05-14T07:42:35.968Z,102109.81
2023-05-14T07:45:04.209Z,102101.63
2023-05-14T07:47:30.810Z,102096.91
2023-05-14T07:49:57.826Z,102093.34
2023-05-14T07:52:24.894Z,102091.47
2023-05-14T07:54:52.089Z,102090.16
2023-05-14T07:57:19.493Z,102091.50
2023-05-14T07:59:46.435Z,102093.91
2023-05-14T08:02:12.965Z,102093.69
2023-05-14T08:04:39.884Z,102089.94
2023-05-14T08:07:08.512Z,102092.13
2023-05-14T08:09:34.967Z,102089.47
2023-05-14T08:12:01.420Z,102096.31
2023-05-14T08:14:28.611Z,102093.47
2023-05-14T08:16:55.092Z,102099.44
2023-05-14T08:19:22.986Z,102096.69
2023-05-14T08:21:49.423Z,102093.47
2023-05-14T08:24:15.859Z,102093.22
2023-05-14T08:26:42.314Z,102096.34
2023-05-14T08:29:10.647Z,102083.66
2023-05-14T08:31:37.579Z,102096.25
2023-05-14T08:34:03.923Z,102084.59
2023-05-14T08:36:30.285Z,102087.66
2023-05-14T08:38:56.688Z,102082.16
2023-05-14T08:41:23.453Z,102087.09
2023-05-14T08:44:12.484Z,102087.09
2023-05-14T08:46:39.712Z,102083.28
2023-05-14T08:49:25.097Z,102082.06
2023-05-14T08:51:51.793Z,102079.88
2023-05-14T08:54:18.390Z,102074.59
2023-05-14T08:56:49.892Z,102076.69
2023-05-14T08:59:17.670Z,102080.75
2023-05-14T09:01:47.902Z,102074.97
2023-05-14T09:04:22.008Z,102070.78
2023-05-14T09:06:56.193Z,102064.06
2023-05-14T09:09:23.189Z,102062.91
2023-05-14T09:11:53.858Z,102059.84
2023-05-14T09:14:20.869Z,102069.63
2023-05-14T09:16:49.582Z,102061.22
2023-05-14T09:19:18.973Z,102058.16
2023-05-14T09:21:46.871Z,102059.75
2023-05-14T09:24:24.005Z,102051.41
2023-05-14T09:26:52.598Z,102053.00
2023-05-14T09:29:19.274Z,102045.25
2023-05-14T09:31:45.978Z,102051.22
2023-05-14T09:34:23.983Z,102042.94
2023-05-14T09:36:50.459Z,102042.53
2023-05-14T09:39:17.626Z,102038.94
2023-05-14T09:41:43.944Z,102036.06
2023-05-14T09:44:10.856Z,102035.38
2023-05-14T09:46:37.217Z,102036.03
2023-05-14T09:49:03.598Z,102038.38
2023-05-14T09:51:34.424Z,102028.19
2023-05-14T09:54:01.246Z,102029.88
2023-05-14T09:56:27.597Z,102031.28
2023-05-14T09:58:55.008Z,102029.59
2023-05-14T10:01:22.684Z,102027.34
2023-05-14T10:03:49.785Z,102029.06
2023-05-14T10:06:17.797Z,102018.97
2023-05-14T10:08:45.585Z,102025.50
2023-05-14T10:11:15.513Z,102018.38
2023-05-14T10:13:53.132Z,102020.19
2023-05-14T10:16:24.127Z,102017.66
2023-05-14T10:18:56.423Z,102024.22
2023-05-14T10:21:24.295Z,102004.25
2023-05-14T10:23:51.397Z,102010.31
2023-05-14T10:26:18.204Z,102014.22
2023-05-14T10:28:45.355Z,102009.44
2023-05-14T10:31:12.797Z,102008.47
2023-05-14T10:33:50.652Z,102004.94
2023-05-14T10:36:20.725Z,102010.91
2023-05-14T10:38:47.341Z,101999.44
2023-05-14T10:41:17.610Z,101999.94
2023-05-14T10:43:44.430Z,101996.06
2023-05-14T10:46:13.127Z,101995.75
2023-05-14T10:48:42.836Z,101985.84
2023-05-14T10:51:10.872Z,101986.56
2023-05-14T10:53:39.716Z,101979.22
2023-05-14T10:56:15.350Z,101982.50
2023-05-14T10:58:43.836Z,101989.41
2023-05-14T11:01:12.512Z,101977.06
2023-05-14T11:03:46.724Z,101968.13
2023-05-14T11:06:14.934Z,101970.59
2023-05-14T11:08:41.665Z,101971.84
2023-05-14T11:11:09.216Z,101964.81
2023-05-14T11:13:35.878Z,101971.53
2023-05-14T11:16:12.027Z,101971.97
2023-05-14T11:18:48.031Z,101967.91
2023-05-14T11:21:14.445Z,101963.78
2023-05-14T11:23:40.820Z,101962.59
2023-05-14T11:26:07.322Z,101955.34
2023-05-14T11:28:34.341Z,101962.59
2023-05-14T11:31:01.120Z,101956.16
2023-05-14T11:33:27.905Z,101951.47
2023-05-14T11:35:54.371Z,101951.13
2023-05-14T11:38:21.356Z,101942.63
2023-05-14T11:40:58.709Z,101942.63
2023-05-14T11:43:28.401Z,101932.59
2023-05-14T11:45:55.511Z,101938.06
2023-05-14T11:48:22.936Z,101930.31
2023-05-14T11:50:53.234Z,101930.19
2023-05-14T11:53:30.298Z,101935.97
2023-05-14T11:55:59.571Z,101932.47
2023-05-14T11:58:26.401Z,101931.28
2023-05-14T12:00:55.285Z,101929.59
2023-05-14T12:03:25.990Z,101929.59
2023-05-14T12:05:59.713Z,101921.50
2023-05-14T12:08:30.610Z,101930.00
2023-05-14T12:10:59.219Z,101929.66
2023-05-14T12:13:30.494Z,101922.38
2023-05-14T12:15:59.273Z,101914.59
2023-05-14T12:18:27.790Z,101905.91
2023-05-14T12:20:54.312Z,101918.47
2023-05-14T12:23:28.630Z,101909.28
2023-05-14T12:25:55.228Z,101911.44
2023-05-14T12:28:23.246Z,101906.72
2023-05-14T12:30:56.481Z,101904.66
2023-05-14T12:33:23.805Z,101904.53
2023-05-14T12:35:50.268Z,101901.53
2023-05-14T12:38:16.626Z,101902.81
2023-05-14T12:40:43.001Z,101893.72
2023-05-14T12:43:09.359Z,101897.38
2023-05-14T12:45:35.741Z,101892.28
2023-05-14T12:48:02.114Z,101898.47
2023-05-14T12:50:29.192Z,101888.88
2023-05-14T12:52:55.789Z,101885.38
2023-05-14T12:55:22.147Z,101876.25
2023-05-14T12:57:48.559Z,101879.56
2023-05-14T13:00:15.462Z,101868.06
2023-05-14T13:02:42.975Z,101875.06
2023-05-14T13:05:10.580Z,101879.13
2023-05-14T13:07:37.268Z,101877.88
2023-05-14T13:10:05.857Z,101876.94
2023-05-14T13:12:32.517Z,101877.91
2023-05-14T13:14:58.978Z,101872.56
2023-05-14T13:17:26.601Z,101867.47
2023-05-14T13:19:53.047Z,101865.19
2023-05-14T13:22:19.428Z,101869.56
2023-05-14T13:24:46.361Z,101863.16
2023-05-14T13:27:12.795Z,101864.47
2023-05-14T13:29:39.273Z,101864.22
2023-05-14T13:32:06.057Z,101863.47
2023-05-14T13:34:32.393Z,101859.25
2023-05-14T13:36:58.818Z,101854.66
2023-05-14T13:39:27.055Z,101857.78
2023-05-14T13:41:57.096Z,101850.75
2023-05-14T13:44:23.899Z,101860.81
2023-05-14T13:46:50.590Z,101852.94
2023-05-14T13:49:17.298Z,101852.94
2023-05-14T13:51:44.065Z,101849.03
2023-05-14T13:54:10.506Z,101838.84
2023-05-14T13:56:36.842Z,101838.84
2023-05-14T13:59:03.532Z,101840.34
2023-05-14T14:01:32.783Z,101842.03
2023-05-14T14:03:59.281Z,101836.72
2023-05-14T14:06:27.248Z,101834.75
2023-05-14T14:08:53.905Z,101827.72
2023-05-14T14:11:20.637Z,101839.09
2023-05-14T14:13:46.974Z,101825.63
2023-05-14T14:16:13.478Z,101828.44
2023-05-14T14:18:39.922Z,101826.50
2023-05-14T14:21:06.460Z,101820.16
2023-05-14T14:23:32.805Z,101816.06
2023-05-14T14:25:59.266Z,101819.97
2023-05-14T14:28:25.717Z,101817.69
2023-05-14T14:30:52.213Z,101818.06
2023-05-14T14:33:18.601Z,101815.16
2023-05-14T14:35:44.998Z,101816.34
2023-05-14T14:38:11.379Z,101816.22
2023-05-14T14:40:37.768Z,101806.31
2023-05-14T14:43:04.100Z,101810.53
2023-05-14T14:45:30.836Z,101810.88
2023-05-14T14:48:25.236Z,101807.88
2023-05-14T14:50:52.057Z,101814.19
2023-05-14T14:53:19.634Z,101806.78
2023-05-14T14:55:46.149Z,101814.50
2023-05-14T14:58:12.725Z,101811.97
2023-05-14T15:00:40.178Z,101810.91
2023-05-14T15:03:09.775Z,101804.97
2023-05-14T15:05:36.243Z,101810.91
2023-05-14T15:08:02.663Z,101809.84
2023-05-14T15:10:29.552Z,101813.13
2023-05-14T15:12:59.821Z,101805.72
2023-05-14T15:15:26.664Z,101800.13
2023-05-14T15:17:53.239Z,101807.41
2023-05-14T15:20:19.714Z,101799.16
2023-05-14T15:22:46.099Z,101798.44
2023-05-14T15:25:12.420Z,101798.44
2023-05-14T15:27:38.820Z,101795.66
2023-05-14T15:30:06.313Z,101791.41
2023-05-14T15:32:33.731Z,101796.28
2023-05-14T15:35:01.052Z,101790.94
2023-05-14T15:37:27.505Z,101785.63
2023-05-14T15:39:54.044Z,101783.78
2023-05-14T15:42:20.956Z,101787.41
2023-05-14T15:44:47.336Z,101781.25
2023-05-14T15:47:13.782Z,101781.25
2023-05-14T15:49:40.144Z,101782.34
2023-05-14T15:52:06.755Z,101774.28
2023-05-14T15:54:33.134Z,101778.63
2023-05-14T15:56:59.478Z,101771.59
2023-05-14T15:59:25.834Z,101765.81
2023-05-14T16:01:52.324Z,101771.28
2023-05-14T16:04:18.700Z,101771.00
2023-05-14T16:06:45.218Z,101779.59
2023-05-14T16:09:11.636Z,101777.66
2023-05-14T16:11:38.077Z,101777.78
2023-05-14T16:14:04.526Z,101786.75
2023-05-14T16:16:31.046Z,101773.31
2023-05-14T16:18:57.546Z,101790.25
2023-05-14T16:21:23.909Z,101791.75
2023-05-14T16:23:50.270Z,101788.63
2023-05-14T16:26:16.679Z,101786.66
2023-05-14T16:28:43.096Z,101789.34
2023-05-14T16:31:09.523Z,101784.25
2023-05-14T16:33:35.921Z,101776.50
2023-05-14T16:36:02.406Z,101786.81
2023-05-14T16:38:28.793Z,101790.38
2023-05-14T16:40:55.283Z,101784.31
2023-05-14T16:43:21.605Z,101788.69
2023-05-14T16:45:48.139Z,101780.69
2023-05-14T16:48:14.636Z,101785.06
2023-05-14T16:50:41.073Z,101783.63
2023-05-14T16:53:07.462Z,101796.47
2023-05-14T16:55:34.173Z,101789.31
2023-05-14T16:58:00.511Z,101798.72
2023-05-14T17:00:26.887Z,101796.91
2023-05-14T17:02:54.177Z,101803.72
2023-05-14T17:05:21.115Z,101811.72
2023-05-14T17:07:47.846Z,101810.47
2023-05-14T17:10:14.314Z,101805.88
2023-05-14T17:12:40.742Z,101802.34
2023-05-14T17:15:07.838Z,101801.63
2023-05-14T17:17:34.507Z,101799.81
2023-05-14T17:20:01.050Z,101800.81
2023-05-14T17:22:27.585Z,101811.47
2023-05-14T17:24:54.235Z,101810.59
2023-05-14T17:27:20.679Z,101806.13
2023-05-14T17:29:47.082Z,101812.88
2023-05-14T17:32:13.518Z,101818.69
2023-05-14T17:34:39.888Z,101815.16
2023-05-14T17:37:06.712Z,101814.34
2023-05-14T17:39:33.073Z,101808.75
2023-05-14T17:41:59.448Z,101812.97
2023-05-14T17:44:25.804Z,101808.72
2023-05-14T17:46:52.282Z,101794.44
2023-05-14T17:49:18.624Z,101807.44
2023-05-14T17:51:44.980Z,101806.22
2023-05-14T17:54:11.303Z,101808.91
2023-05-14T17:56:37.712Z,101816.38
2023-05-14T17:59:04.045Z,101815.66
2023-05-14T18:01:30.756Z,101817.81
2023-05-14T18:03:57.270Z,101827.13
2023-05-14T18:06:23.900Z,101823.94
2023-05-14T18:08:50.369Z,101829.63
2023-05-14T18:11:16.846Z,101828.03
2023-05-14T18:13:43.264Z,101831.34
2023-05-14T18:16:09.668Z,101828.19
2023-05-14T18:18:36.056Z,101834.25
2023-05-14T18:21:02.752Z,101826.91
2023-05-14T18:23:29.092Z,101835.59
2023-05-14T18:25:55.535Z,101841.13
2023-05-14T18:28:21.919Z,101831.91
2023-05-14T18:30:49.240Z,101840.94
2023-05-14T18:33:15.672Z,101839.88
2023-05-14T18:35:43.502Z,101837.28
2023-05-14T18:38:11.728Z,101841.69
2023-05-14T18:40:38.189Z,101845.59
2023-05-14T18:43:04.623Z,101844.13
2023-05-14T18:45:31.064Z,101848.72
2023-05-14T18:47:57.611Z,101844.81
2023-05-14T18:50:24.043Z,101860.09
2023-05-14T18:52:50.460Z,101857.13
2023-05-14T18:55:17.020Z,101860.72
2023-05-14T18:57:43.528Z,101856.59
2023-05-14T19:00:10.651Z,101859.56
2023-05-14T19:02:37.102Z,101862.75
2023-05-14T19:05:03.727Z,101861.69
2023-05-14T19:07:30.880Z,101864.34
2023-05-14T19:09:57.270Z,101863.59
2023-05-14T19:12:23.664Z,101869.78
2023-05-14T19:14:49.994Z,101870.84
2023-05-14T19:17:18.372Z,101858.28
2023-05-14T19:19:45.510Z,101864.59
2023-05-14T19:22:11.853Z,101866.91
2023-05-14T19:24:38.237Z,101863.94
2023-05-14T19:27:04.819Z,101863.00
2023-05-14T19:29:32.376Z,101862.00
2023-05-14T19:31:58.856Z,101856.16
2023-05-14T19:34:26.996Z,101860.00
2023-05-14T19:36:53.358Z,101857.56
2023-05-14T19:39:19.665Z,101867.63
2023-05-14T19:41:46.090Z,101862.94
2023-05-14T19:44:12.426Z,101874.06
2023-05-14T19:46:38.885Z,101868.59
2023-05-14T19:49:05.458Z,101860.81
2023-05-14T19:51:31.860Z,101865.16
2023-05-14T19:53:58.176Z,101864.16
2023-05-14T19:56:26.450Z,101867.75
2023-05-14T19:58:53.958Z,101857.72
2023-05-14T20:01:20.913Z,101862.44
2023-05-14T20:03:47.462Z,101862.34
2023-05-14T20:06:13.905Z,101866.91
2023-05-14T20:08:40.343Z,101872.97
2023-05-14T20:11:07.085Z,101869.56
2023-05-14T20:13:35.441Z,101858.56
2023-05-14T20:16:01.874Z,101867.47
2023-05-14T20:18:28.259Z,101857.41
2023-05-14T20:20:54.765Z,101861.09
2023-05-14T20:23:21.238Z,101863.63
2023-05-14T20:25:47.807Z,101862.13
2023-05-14T20:28:14.192Z,101857.56
2023-05-14T20:30:40.685Z,101852.94
2023-05-14T20:33:07.284Z,101858.06
2023-05-14T20:35:33.927Z,101853.66
2023-05-14T20:38:00.348Z,101853.66
2023-05-14T20:40:26.856Z,101850.28
2023-05-14T20:42:53.374Z,101850.81
2023-05-14T20:45:19.733Z,101848.19
2023-05-14T20:47:46.157Z,101839.25
2023-05-14T20:50:13.587Z,101839.69
2023-05-14T20:52:40.062Z,101839.69
2023-05-14T20:55:07.665Z,101842.19
2023-05-14T20:57:34.058Z,101835.16
2023-05-14T21:00:00.374Z,101836.13
2023-05-14T21:02:26.875Z,101835.50
2023-05-14T21:04:53.402Z,101829.97
2023-05-14T21:07:19.803Z,101832.75
2023-05-14T21:09:50.797Z,101826.06
2023-05-14T21:12:17.178Z,101826.63
2023-05-14T21:14:43.575Z,101821.84
2023-05-14T21:17:10.433Z,101829.25
2023-05-14T21:19:36.785Z,101826.94
2023-05-14T21:22:03.189Z,101831.06
2023-05-14T21:24:29.602Z,101834.06
2023-05-14T21:26:56.044Z,101824.00
2023-05-14T21:29:22.430Z,101828.03
2023-05-14T21:31:48.924Z,101839.97
2023-05-14T21:34:15.437Z,101840.38
2023-05-14T21:36:41.832Z,101836.88
2023-05-14T21:39:08.236Z,101835.56
2023-05-14T21:41:34.666Z,101827.63
2023-05-14T21:44:01.044Z,101827.44
2023-05-14T21:46:28.875Z,101820.72
2023-05-14T21:48:56.352Z,101821.69
2023-05-14T21:51:22.873Z,101809.00
2023-05-14T21:53:49.291Z,101814.91
2023-05-14T21:56:15.795Z,101811.19
2023-05-14T21:58:42.261Z,101818.13
2023-05-14T22:01:09.059Z,101816.03
2023-05-14T22:03:35.936Z,101812.84
2023-05-14T22:06:02.338Z,101820.50
2023-05-14T22:08:29.838Z,101811.69
2023-05-14T22:10:56.357Z,101806.09
2023-05-14T22:13:22.771Z,101811.03
2023-05-14T22:15:51.410Z,101803.56
2023-05-14T22:18:22.160Z,101800.53
2023-05-14T22:20:48.541Z,101797.16
2023-05-14T22:23:14.874Z,101806.69
2023-05-14T22:25:41.298Z,101803.50
2023-05-14T22:28:07.651Z,101802.63
2023-05-14T22:30:34.093Z,101807.09
2023-05-14T22:33:00.485Z,101799.88
2023-05-14T22:35:27.052Z,101798.09
2023-05-14T22:37:53.597Z,101802.44
2023-05-14T22:40:20.174Z,101792.69
2023-05-14T22:42:46.605Z,101792.59
2023-05-14T22:45:12.986Z,101785.50
2023-05-14T22:47:39.384Z,101777.56
2023-05-14T22:50:11.302Z,101780.78
2023-05-14T22:52:40.945Z,101784.03
2023-05-14T22:55:08.270Z,101787.44
2023-05-14T22:57:35.010Z,101777.34
2023-05-14T23:00:01.558Z,101765.53
2023-05-14T23:02:28.011Z,101769.25
2023-05-14T23:04:54.510Z,101766.50
2023-05-14T23:07:21.941Z,101768.09
2023-05-14T23:09:48.285Z,101761.97
2023-05-14T23:12:14.782Z,101767.81
2023-05-14T23:14:41.232Z,101769.50
2023-05-14T23:17:07.663Z,101775.09
2023-05-14T23:19:34.132Z,101768.75
2023-05-14T23:22:00.739Z,101766.13
2023-05-14T23:24:27.188Z,101768.38
2023-05-14T23:26:53.605Z,101765.00
2023-05-14T23:29:19.960Z,101757.16
2023-05-14T23:31:46.402Z,101752.34
2023-05-14T23:34:12.826Z,101749.28
2023-05-14T23:36:40.361Z,101752.03
2023-05-14T23:39:06.945Z,101742.72
2023-05-14T23:41:33.604Z,101740.78
2023-05-14T23:44:00.034Z,101734.94
2023-05-14T23:46:26.791Z,101727.44
2023-05-14T23:48:56.850Z,101730.09
2023-05-14T23:51:24.342Z,101715.91
2023-05-14T23:53:53.094Z,101710.63
2023-05-14T23:56:19.486Z,101715.03
2023-05-14T23:58:45.907Z,101719.69
